createdAt,value
2018-03-15T00:01:58.519Z,67.05
2018-03-15T00:04:33.380Z,67.48
2018-03-15T00:07:01.804Z,64.23
2018-03-15T00:09:30.243Z,65.75
2018-03-15T00:11:58.645Z,66.72
2018-03-15T00:14:27.053Z,63.26
2018-03-15T00:16:55.546Z,64.90
2018-03-15T00:19:23.913Z,65.18
2018-03-15T00:21:52.390Z,61.89
2018-03-15T00:24:20.771Z,62.78
2018-03-15T00:26:49.184Z,64.60
2018-03-15T00:29:17.569Z,63.29
2018-03-15T00:31:45.923Z,61.47
2018-03-15T00:34:14.309Z,60.63
2018-03-15T00:36:42.692Z,63.44
2018-03-15T00:39:11.156Z,60.21
2018-03-15T00:41:39.583Z,62.04
2018-03-15T00:44:07.944Z,60.74
2018-03-15T00:46:36.425Z,60.89
2018-03-15T00:49:04.804Z,63.60
2018-03-15T00:51:33.604Z,60.54
2018-03-15T00:54:02.439Z,60.27
2018-03-15T00:56:30.944Z,60.30
2018-03-15T00:58:59.324Z,60.30
2018-03-15T01:01:27.691Z,65.10
2018-03-15T01:03:56.059Z,60.70
2018-03-15T01:06:24.444Z,59.89
2018-03-15T01:08:52.885Z,61.06
2018-03-15T01:11:21.260Z,58.45
2018-03-15T01:13:49.663Z,61.80
2018-03-15T01:16:18.131Z,63.18
2018-03-15T01:18:46.516Z,61.10
2018-03-15T01:21:14.919Z,58.94
2018-03-15T01:23:43.296Z,61.42
2018-03-15T01:26:11.920Z,61.01
2018-03-15T01:28:40.307Z,61.65
2018-03-15T01:31:08.699Z,59.88
2018-03-15T01:33:37.074Z,61.21
2018-03-15T01:36:05.456Z,59.26
2018-03-15T01:38:33.877Z,60.46
2018-03-15T01:41:02.244Z,62.69
2018-03-15T01:43:30.649Z,61.26
2018-03-15T01:45:59.035Z,62.59
2018-03-15T01:48:27.382Z,65.50
2018-03-15T01:50:55.813Z,60.93
2018-03-15T01:53:24.187Z,63.62
2018-03-15T01:55:52.660Z,64.65
2018-03-15T01:58:21.019Z,62.76
2018-03-15T02:00:49.395Z,63.75
2018-03-15T02:03:17.865Z,63.41
2018-03-15T02:05:46.240Z,61.00
2018-03-15T02:08:14.620Z,61.65
2018-03-15T02:10:42.990Z,58.61
2018-03-15T02:13:11.492Z,58.43
2018-03-15T02:15:39.886Z,58.23
2018-03-15T02:18:08.276Z,58.99
2018-03-15T02:20:36.697Z,59.01
2018-03-15T02:23:05.097Z,60.86
2018-03-15T02:25:33.479Z,59.47
2018-03-15T02:28:01.826Z,61.13
2018-03-15T02:30:30.227Z,61.79
2018-03-15T02:32:58.653Z,59.54
2018-03-15T02:35:27.065Z,61.50
2018-03-15T02:37:55.434Z,56.94
2018-03-15T02:40:23.792Z,60.02
2018-03-15T02:42:52.157Z,61.78
2018-03-15T02:45:20.680Z,58.73
2018-03-15T02:47:49.069Z,58.46
2018-03-15T02:50:17.442Z,62.64
2018-03-15T02:52:45.888Z,64.87
2018-03-15T02:55:14.236Z,60.27
2018-03-15T02:57:42.659Z,61.37
2018-03-15T03:00:11.032Z,59.70
2018-03-15T03:02:39.398Z,61.29
2018-03-15T03:05:07.759Z,61.63
2018-03-15T03:07:36.126Z,65.43
2018-03-15T03:10:04.592Z,65.13
2018-03-15T03:12:32.956Z,64.50
2018-03-15T03:15:01.371Z,63.62
2018-03-15T03:17:30.338Z,65.06
2018-03-15T03:19:58.703Z,64.25
2018-03-15T03:22:27.121Z,63.89
2018-03-15T03:24:55.485Z,67.08
2018-03-15T03:27:23.861Z,64.10
2018-03-15T03:29:52.211Z,68.87
2018-03-15T03:32:20.576Z,68.24
2018-03-15T03:34:49.023Z,63.23
2018-03-15T03:37:17.511Z,63.11
2018-03-15T03:39:45.874Z,66.42
2018-03-15T03:42:14.238Z,65.76
2018-03-15T03:44:42.603Z,66.44
2018-03-15T03:47:11.048Z,66.63
2018-03-15T03:49:39.403Z,66.21
2018-03-15T03:52:07.775Z,65.22
2018-03-15T03:54:36.166Z,65.97
2018-03-15T03:57:04.528Z,64.07
2018-03-15T03:59:32.936Z,65.91
2018-03-15T04:02:01.300Z,65.74
2018-03-15T04:04:29.676Z,67.26
2018-03-15T04:09:25.522Z,67.17
2018-03-15T04:11:53.883Z,64.66
2018-03-15T04:14:22.274Z,65.11
2018-03-15T04:16:50.647Z,68.47
2018-03-15T04:19:19.004Z,66.70
2018-03-15T04:21:47.375Z,67.67
2018-03-15T04:24:15.876Z,67.36
2018-03-15T04:26:44.232Z,66.56
2018-03-15T04:29:12.601Z,66.53
2018-03-15T04:31:40.960Z,68.17
2018-03-15T04:34:09.332Z,68.14
2018-03-15T04:36:37.772Z,64.15
2018-03-15T04:39:06.156Z,66.47
2018-03-15T04:41:34.633Z,67.64
2018-03-15T04:44:03.024Z,65.96
2018-03-15T04:46:31.383Z,65.87
2018-03-15T04:48:59.894Z,65.94
2018-03-15T04:51:28.267Z,68.11
2018-03-15T04:53:56.848Z,68.00
2018-03-15T04:56:25.220Z,69.18
2018-03-15T04:58:53.581Z,68.11
2018-03-15T05:01:21.942Z,65.39
2018-03-15T05:03:50.313Z,64.74
2018-03-15T05:06:18.741Z,67.43
2018-03-15T05:08:47.201Z,68.11
2018-03-15T05:11:15.575Z,69.28
2018-03-15T05:13:43.941Z,67.20
2018-03-15T05:16:12.344Z,64.33
2018-03-15T05:18:40.783Z,65.30
2018-03-15T05:21:09.154Z,64.49
2018-03-15T05:23:37.520Z,63.97
2018-03-15T05:26:06.019Z,63.18
2018-03-15T05:28:34.389Z,63.43
2018-03-15T05:31:02.836Z,67.20
2018-03-15T05:33:31.200Z,65.82
2018-03-15T05:35:59.555Z,66.94
2018-03-15T05:38:27.949Z,65.36
2018-03-15T05:40:56.429Z,67.80
2018-03-15T05:43:24.825Z,67.57
2018-03-15T05:45:53.188Z,68.40
2018-03-15T05:48:21.639Z,70.04
2018-03-15T05:50:50.055Z,69.70
2018-03-15T05:53:18.480Z,65.86
2018-03-15T05:55:46.842Z,65.52
2018-03-15T05:58:15.216Z,67.72
2018-03-15T06:00:43.623Z,69.97
2018-03-15T06:03:12.010Z,70.03
2018-03-15T06:05:40.556Z,66.84
2018-03-15T06:08:08.923Z,67.56
2018-03-15T06:10:37.277Z,66.74
2018-03-15T06:13:05.639Z,65.50
2018-03-15T06:15:34.119Z,68.38
2018-03-15T06:18:02.628Z,67.28
2018-03-15T06:20:31.108Z,67.46
2018-03-15T06:22:59.640Z,66.57
2018-03-15T06:25:28.091Z,66.86
2018-03-15T06:27:56.459Z,66.62
2018-03-15T06:30:24.941Z,68.92
2018-03-15T06:32:53.375Z,63.98
2018-03-15T06:35:21.735Z,66.17
2018-03-15T06:37:50.108Z,66.61
2018-03-15T06:40:18.497Z,64.28
2018-03-15T06:42:47.220Z,62.95
2018-03-15T06:45:15.700Z,65.03
2018-03-15T06:47:44.122Z,63.12
2018-03-15T06:50:12.520Z,58.24
2018-03-15T06:52:40.918Z,55.11
2018-03-15T06:55:09.378Z,52.24
2018-03-15T06:57:37.726Z,50.17
2018-03-15T07:00:06.124Z,46.61
2018-03-15T07:02:34.578Z,44.83
2018-03-15T07:05:03.255Z,44.64
2018-03-15T07:07:31.737Z,45.15
2018-03-15T07:10:00.264Z,46.05
2018-03-15T07:12:28.760Z,45.61
2018-03-15T07:14:57.150Z,43.33
2018-03-15T07:17:25.628Z,44.20
2018-03-15T07:19:54.046Z,42.72
2018-03-15T07:22:22.475Z,43.31
2018-03-15T07:24:50.854Z,44.96
2018-03-15T07:27:19.262Z,42.67
2018-03-15T07:29:47.751Z,41.50
2018-03-15T07:32:16.333Z,44.70
2018-03-15T07:34:44.706Z,46.59
2018-03-15T07:37:13.309Z,49.90
2018-03-15T07:39:41.715Z,50.16
2018-03-15T07:42:10.089Z,52.89
2018-03-15T07:44:38.697Z,54.67
2018-03-15T07:47:07.091Z,52.80
2018-03-15T07:49:35.531Z,52.84
2018-03-15T07:52:03.875Z,54.23
2018-03-15T07:54:32.245Z,51.87
2018-03-15T07:57:00.676Z,50.59
2018-03-15T07:59:29.038Z,47.17
2018-03-15T08:01:57.449Z,46.61
2018-03-15T08:04:25.841Z,45.46
2018-03-15T08:06:54.214Z,44.65
2018-03-15T08:09:22.588Z,44.97
2018-03-15T08:11:50.953Z,45.78
2018-03-15T08:14:19.385Z,44.58
2018-03-15T08:16:47.738Z,45.44
2018-03-15T08:19:16.115Z,47.07
2018-03-15T08:21:44.493Z,47.91
2018-03-15T08:24:12.975Z,49.75
2018-03-15T08:26:42.259Z,44.85
2018-03-15T08:29:10.665Z,44.83
2018-03-15T08:31:39.052Z,44.00
2018-03-15T08:34:07.431Z,43.51
2018-03-15T08:36:35.803Z,41.84
2018-03-15T08:39:04.350Z,39.64
2018-03-15T08:41:32.734Z,40.36
2018-03-15T08:44:01.122Z,41.70
2018-03-15T08:46:29.515Z,42.70
2018-03-15T08:48:57.996Z,42.51
2018-03-15T08:51:26.430Z,43.92
2018-03-15T08:53:54.865Z,37.69
2018-03-15T08:56:23.265Z,35.95
2018-03-15T08:58:51.636Z,33.31
2018-03-15T09:01:20.019Z,33.01
2018-03-15T09:03:48.463Z,35.85
2018-03-15T09:06:16.849Z,34.21
2018-03-15T09:08:45.353Z,34.11
2018-03-15T09:11:13.688Z,36.84
2018-03-15T09:13:42.080Z,39.44
2018-03-15T09:16:10.520Z,38.47
2018-03-15T09:18:38.919Z,42.42
2018-03-15T09:21:07.314Z,39.04
2018-03-15T09:23:35.726Z,39.98
2018-03-15T09:26:04.093Z,38.73
2018-03-15T09:28:32.512Z,37.36
2018-03-15T09:31:00.915Z,39.84
2018-03-15T09:33:29.305Z,37.03
2018-03-15T09:35:57.697Z,37.14
2018-03-15T09:38:26.089Z,34.61
2018-03-15T09:40:54.563Z,33.70
2018-03-15T09:43:22.967Z,32.71
2018-03-15T09:45:51.375Z,32.24
2018-03-15T09:48:19.768Z,32.30
2018-03-15T09:50:48.153Z,34.42
2018-03-15T09:53:16.612Z,37.35
2018-03-15T09:55:45.023Z,37.73
2018-03-15T09:58:13.414Z,39.63
2018-03-15T10:00:41.799Z,39.84
2018-03-15T10:03:10.178Z,42.02
2018-03-15T10:05:38.728Z,39.50
2018-03-15T10:08:07.122Z,41.11
2018-03-15T10:10:35.524Z,39.69
2018-03-15T10:13:03.919Z,39.12
2018-03-15T10:15:32.340Z,38.86
2018-03-15T10:18:00.784Z,38.97
2018-03-15T10:20:29.185Z,37.01
2018-03-15T10:22:57.568Z,38.30
2018-03-15T10:25:26.392Z,37.29
2018-03-15T10:27:54.352Z,34.34
2018-03-15T10:30:22.768Z,33.96
2018-03-15T10:32:56.828Z,33.30
2018-03-15T10:35:28.413Z,33.92
2018-03-15T10:37:56.798Z,32.91
2018-03-15T10:40:25.180Z,34.53
2018-03-15T10:42:53.559Z,34.28
2018-03-15T10:45:22.043Z,32.88
2018-03-15T10:47:50.515Z,34.20
2018-03-15T10:50:18.935Z,34.72
2018-03-15T10:52:47.337Z,35.24
2018-03-15T10:55:15.723Z,34.70
2018-03-15T10:57:44.202Z,34.86
2018-03-15T11:00:12.646Z,33.25
2018-03-15T11:02:46.576Z,34.27
2018-03-15T11:05:20.932Z,36.34
2018-03-15T11:07:54.914Z,37.20
2018-03-15T11:10:23.366Z,38.98
2018-03-15T11:12:52.777Z,39.82
2018-03-15T11:15:21.132Z,39.88
2018-03-15T11:17:49.519Z,40.08
2018-03-15T11:20:17.948Z,40.96
2018-03-15T11:22:46.394Z,41.28
2018-03-15T11:25:14.799Z,41.34
2018-03-15T11:27:43.299Z,43.54
2018-03-15T11:30:11.687Z,40.72
2018-03-15T11:32:40.080Z,40.77
2018-03-15T11:35:08.545Z,39.44
2018-03-15T11:37:36.938Z,37.69
2018-03-15T11:40:05.343Z,37.91
2018-03-15T11:42:33.731Z,35.59
2018-03-15T11:45:02.120Z,35.24
2018-03-15T11:47:31.288Z,37.45
2018-03-15T11:49:59.684Z,35.92
2018-03-15T11:52:28.121Z,37.14
2018-03-15T11:54:56.504Z,35.55
2018-03-15T11:57:24.883Z,33.11
2018-03-15T11:59:53.340Z,32.56
2018-03-15T12:02:21.736Z,35.45
2018-03-15T12:04:50.143Z,34.57
2018-03-15T12:07:18.826Z,32.67
2018-03-15T12:09:47.291Z,33.53
2018-03-15T12:12:15.748Z,34.22
2018-03-15T12:14:44.124Z,34.11
2018-03-15T12:17:12.621Z,33.87
2018-03-15T12:19:40.987Z,35.18
2018-03-15T12:22:09.371Z,35.94
2018-03-15T12:24:37.814Z,36.21
2018-03-15T12:27:06.184Z,36.52
2018-03-15T12:29:34.557Z,35.18
2018-03-15T12:32:02.924Z,36.24
2018-03-15T12:34:31.302Z,36.03
2018-03-15T12:36:59.745Z,38.53
2018-03-15T12:39:28.098Z,38.69
2018-03-15T12:41:56.475Z,37.84
2018-03-15T12:44:24.957Z,38.34
2018-03-15T12:46:53.330Z,39.68
2018-03-15T12:49:21.843Z,42.89
2018-03-15T12:51:50.226Z,40.46
2018-03-15T12:54:18.618Z,39.32
2018-03-15T12:56:47.000Z,41.38
2018-03-15T12:59:15.363Z,40.53
2018-03-15T13:01:43.828Z,39.60
2018-03-15T13:04:12.192Z,40.66
2018-03-15T13:06:40.564Z,41.34
2018-03-15T13:09:08.978Z,40.40
2018-03-15T13:11:37.364Z,41.26
2018-03-15T13:14:05.747Z,40.73
2018-03-15T13:16:34.126Z,41.14
2018-03-15T13:19:02.496Z,42.22
2018-03-15T13:21:30.888Z,41.75
2018-03-15T13:23:59.272Z,41.14
2018-03-15T13:26:27.635Z,41.17
2018-03-15T13:28:56.037Z,41.36
2018-03-15T13:31:24.550Z,42.06
2018-03-15T13:33:52.953Z,42.07
2018-03-15T13:36:21.362Z,41.77
2018-03-15T13:38:49.946Z,40.04
2018-03-15T13:41:18.358Z,40.42
2018-03-15T13:43:46.768Z,40.72
2018-03-15T13:46:15.262Z,41.29
2018-03-15T13:48:43.681Z,42.79
2018-03-15T13:51:12.091Z,42.57
2018-03-15T13:53:40.630Z,44.17
2018-03-15T13:56:09.040Z,43.44
2018-03-15T13:58:37.479Z,42.93
2018-03-15T14:01:06.036Z,43.87
2018-03-15T14:03:34.433Z,45.54
2018-03-15T14:06:02.847Z,43.74
2018-03-15T14:08:31.408Z,43.85
2018-03-15T14:10:59.821Z,43.02
2018-03-15T14:13:28.237Z,43.12
2018-03-15T14:15:56.693Z,43.02
2018-03-15T14:18:25.106Z,45.41
2018-03-15T14:20:53.533Z,45.04
2018-03-15T14:23:22.029Z,42.81
2018-03-15T14:25:50.455Z,44.07
2018-03-15T14:28:19.013Z,47.36
2018-03-15T14:30:47.474Z,46.08
2018-03-15T14:33:15.872Z,44.82
2018-03-15T14:35:44.339Z,45.05
2018-03-15T14:38:12.740Z,44.14
2018-03-15T14:40:41.202Z,43.55
2018-03-15T14:43:09.604Z,45.37
2018-03-15T14:45:38.025Z,46.55
2018-03-15T14:48:06.448Z,45.38
2018-03-15T14:50:34.886Z,41.99
2018-03-15T14:53:03.392Z,44.91
2018-03-15T14:55:31.808Z,46.40
2018-03-15T14:58:00.272Z,45.45
2018-03-15T15:00:28.630Z,45.99
2018-03-15T15:02:57.043Z,46.10
2018-03-15T15:05:25.523Z,46.35
2018-03-15T15:07:53.955Z,45.03
2018-03-15T15:10:22.357Z,45.38
2018-03-15T15:12:50.794Z,47.66
2018-03-15T15:15:19.180Z,47.77
2018-03-15T15:17:47.790Z,46.07
2018-03-15T15:20:16.199Z,45.41
2018-03-15T15:22:44.596Z,48.19
2018-03-15T15:25:13.014Z,49.30
2018-03-15T15:27:41.403Z,48.33
2018-03-15T15:30:10.244Z,45.26
2018-03-15T15:32:38.652Z,48.04
2018-03-15T15:35:07.101Z,47.78
2018-03-15T15:37:35.479Z,49.18
2018-03-15T15:40:03.880Z,50.98
2018-03-15T15:42:32.506Z,48.05
2018-03-15T15:45:01.043Z,48.12
2018-03-15T15:47:29.455Z,48.68
2018-03-15T15:49:58.519Z,49.98
2018-03-15T15:52:26.940Z,51.09
2018-03-15T15:54:55.411Z,50.94
2018-03-15T15:57:23.821Z,50.69
2018-03-15T15:59:52.206Z,50.14
2018-03-15T16:02:20.636Z,50.04
2018-03-15T16:04:49.107Z,50.46
2018-03-15T16:07:17.581Z,50.15
2018-03-15T16:09:45.993Z,51.54
2018-03-15T16:12:14.414Z,49.31
2018-03-15T16:14:42.888Z,50.24
2018-03-15T16:17:11.289Z,52.83
2018-03-15T16:19:39.827Z,52.72
2018-03-15T16:22:08.268Z,53.32
2018-03-15T16:24:36.733Z,52.04
2018-03-15T16:27:05.153Z,54.30
2018-03-15T16:29:33.571Z,51.75
2018-03-15T16:32:02.066Z,50.52
2018-03-15T16:34:30.467Z,51.48
2018-03-15T16:36:58.885Z,52.03
2018-03-15T16:39:27.292Z,50.80
2018-03-15T16:41:55.798Z,50.34
2018-03-15T16:44:24.257Z,51.24
2018-03-15T16:46:52.738Z,49.86
2018-03-15T16:49:21.197Z,51.06
2018-03-15T16:51:49.618Z,50.42
2018-03-15T16:54:18.007Z,51.58
2018-03-15T16:56:46.522Z,51.24
2018-03-15T16:59:14.914Z,52.70
2018-03-15T17:01:43.351Z,51.45
2018-03-15T17:04:11.762Z,52.14
2018-03-15T17:06:40.161Z,51.68
2018-03-15T17:09:08.632Z,52.81
2018-03-15T17:11:37.033Z,54.21
2018-03-15T17:14:05.464Z,51.94
2018-03-15T17:16:33.864Z,55.43
2018-03-15T17:19:02.254Z,53.00
2018-03-15T17:21:30.775Z,53.51
2018-03-15T17:23:59.165Z,53.81
2018-03-15T17:26:27.556Z,53.29
2018-03-15T17:28:55.954Z,55.59
2018-03-15T17:31:24.362Z,54.70
2018-03-15T17:33:52.864Z,54.01
2018-03-15T17:36:21.348Z,55.67
2018-03-15T17:38:49.740Z,54.28
2018-03-15T17:41:18.140Z,55.36
2018-03-15T17:43:46.524Z,52.59
2018-03-15T17:46:14.985Z,52.02
2018-03-15T17:48:43.389Z,54.37
2018-03-15T17:51:11.899Z,53.04
2018-03-15T17:53:40.288Z,56.18
2018-03-15T17:56:10.047Z,55.63
2018-03-15T17:58:38.593Z,55.20
2018-03-15T18:01:07.003Z,55.40
2018-03-15T18:03:35.462Z,56.64
2018-03-15T18:06:03.928Z,53.86
2018-03-15T18:08:32.315Z,55.41
2018-03-15T18:11:00.775Z,56.84
2018-03-15T18:13:29.176Z,55.59
2018-03-15T18:15:57.606Z,55.26
2018-03-15T18:18:26.077Z,56.27
2018-03-15T18:20:54.592Z,54.88
2018-03-15T18:23:23.384Z,56.01
2018-03-15T18:25:51.836Z,55.59
2018-03-15T18:28:20.241Z,52.56
2018-03-15T18:30:48.652Z,54.34
2018-03-15T18:33:17.038Z,56.65
2018-03-15T18:35:45.623Z,56.29
2018-03-15T18:38:14.029Z,55.34
2018-03-15T18:40:42.430Z,56.60
2018-03-15T18:43:10.808Z,57.57
2018-03-15T18:45:39.212Z,57.65
2018-03-15T18:48:07.648Z,56.15
2018-03-15T18:50:36.103Z,54.75
2018-03-15T18:53:04.973Z,56.62
2018-03-15T18:55:33.359Z,57.85
2018-03-15T18:58:01.800Z,56.04
2018-03-15T19:00:30.347Z,55.72
2018-03-15T19:02:58.736Z,55.24
2018-03-15T19:05:27.311Z,56.71
2018-03-15T19:07:55.795Z,57.34
2018-03-15T19:10:24.209Z,55.90
2018-03-15T19:12:52.656Z,54.86
2018-03-15T19:15:21.115Z,55.46
2018-03-15T19:17:49.571Z,56.97
2018-03-15T19:20:18.043Z,57.48
2018-03-15T19:22:46.456Z,57.38
2018-03-15T19:25:14.987Z,57.55
2018-03-15T19:27:43.392Z,56.64
2018-03-15T19:30:11.867Z,56.48
2018-03-15T19:32:40.301Z,56.94
2018-03-15T19:35:08.715Z,57.98
2018-03-15T19:37:37.156Z,55.59
2018-03-15T19:40:05.598Z,55.30
2018-03-15T19:42:34.138Z,56.05
2018-03-15T19:45:02.609Z,58.10
2018-03-15T19:47:30.997Z,55.46
2018-03-15T19:49:59.429Z,55.71
2018-03-15T19:52:27.815Z,57.57
2018-03-15T19:54:56.262Z,56.39
2018-03-15T19:57:24.673Z,54.61
2018-03-15T19:59:53.072Z,58.27
2018-03-15T20:02:21.474Z,54.20
2018-03-15T20:05:08.353Z,56.65
2018-03-15T20:07:36.757Z,55.09
2018-03-15T20:10:05.310Z,53.20
2018-03-15T20:12:33.727Z,55.27
2018-03-15T20:15:02.473Z,55.11
2018-03-15T20:17:31.136Z,52.31
2018-03-15T20:19:59.538Z,55.36
2018-03-15T20:22:34.339Z,53.27
2018-03-15T20:25:02.735Z,53.00
2018-03-15T20:27:36.896Z,56.84
2018-03-15T20:30:05.285Z,56.97
2018-03-15T20:32:39.348Z,52.47
2018-03-15T20:35:07.885Z,55.53
2018-03-15T20:37:36.257Z,52.31
2018-03-15T20:40:10.792Z,55.38
2018-03-15T20:42:39.171Z,52.41
2018-03-15T20:45:07.632Z,52.64
2018-03-15T20:47:42.553Z,57.11
2018-03-15T20:50:10.952Z,54.72
2018-03-15T20:52:39.306Z,56.74
2018-03-15T20:55:07.683Z,55.27
2018-03-15T20:57:36.046Z,53.13
2018-03-15T21:00:04.517Z,55.37
2018-03-15T21:02:32.945Z,56.95
2018-03-15T21:05:01.323Z,58.13
2018-03-15T21:07:29.721Z,53.70
2018-03-15T21:09:58.204Z,55.00
2018-03-15T21:12:26.669Z,54.33
2018-03-15T21:14:55.065Z,52.74
2018-03-15T21:17:23.536Z,54.61
2018-03-15T21:19:51.945Z,53.19
2018-03-15T21:22:20.338Z,54.35
2018-03-15T21:24:48.818Z,52.36
2018-03-15T21:27:17.261Z,51.82
2018-03-15T21:29:45.727Z,52.26
2018-03-15T21:32:14.222Z,50.38
2018-03-15T21:34:42.629Z,53.13
2018-03-15T21:37:11.033Z,52.37
2018-03-15T21:39:39.471Z,54.36
2018-03-15T21:42:07.872Z,54.90
2018-03-15T21:44:36.306Z,54.45
2018-03-15T21:47:04.742Z,53.67
2018-03-15T21:49:33.201Z,52.88
2018-03-15T21:52:01.625Z,54.52
2018-03-15T21:54:30.094Z,52.44
2018-03-15T21:56:58.516Z,54.97
2018-03-15T21:59:26.885Z,55.03
2018-03-15T22:01:55.360Z,52.55
2018-03-15T22:04:23.763Z,56.28
2018-03-15T22:06:52.170Z,54.52
2018-03-15T22:09:20.616Z,57.14
2018-03-15T22:11:49.080Z,55.01
2018-03-15T22:14:17.601Z,52.30
2018-03-15T22:16:46.246Z,52.06
2018-03-15T22:19:14.728Z,53.63
2018-03-15T22:21:43.140Z,55.83
2018-03-15T22:24:12.454Z,54.74
2018-03-15T22:26:40.880Z,53.32
2018-03-15T22:29:09.300Z,55.42
2018-03-15T22:31:37.880Z,54.75
2018-03-15T22:34:06.283Z,52.27
2018-03-15T22:36:34.732Z,56.17
2018-03-15T22:39:03.292Z,53.23
2018-03-15T22:41:31.679Z,56.75
2018-03-15T22:44:00.157Z,54.68
2018-03-15T22:46:28.629Z,57.75
2018-03-15T22:48:57.069Z,55.28
2018-03-15T22:51:25.460Z,57.02
2018-03-15T22:53:54.311Z,59.64
2018-03-15T22:56:22.700Z,58.90
2018-03-15T22:58:51.101Z,59.85
2018-03-15T23:01:19.624Z,57.03
2018-03-15T23:03:48.037Z,55.09
2018-03-15T23:06:16.431Z,57.75
2018-03-15T23:08:44.880Z,58.89
2018-03-15T23:11:13.277Z,61.94
2018-03-15T23:13:41.707Z,59.80
2018-03-15T23:16:10.115Z,57.38
2018-03-15T23:18:38.540Z,59.13
2018-03-15T23:21:07.008Z,57.86
2018-03-15T23:23:35.432Z,56.71
2018-03-15T23:26:03.840Z,56.18
2018-03-15T23:28:32.247Z,57.97
2018-03-15T23:31:00.652Z,59.66
2018-03-15T23:33:29.185Z,59.04
2018-03-15T23:35:57.643Z,59.76
2018-03-15T23:38:26.050Z,60.14
2018-03-15T23:40:54.529Z,59.65
2018-03-15T23:43:22.936Z,60.13
2018-03-15T23:45:51.487Z,60.29
2018-03-15T23:48:19.891Z,58.25
2018-03-15T23:50:48.292Z,63.52
2018-03-15T23:53:16.680Z,61.37
2018-03-15T23:55:45.055Z,62.42
2018-03-15T23:58:13.547Z,62.66
